Philadelphia, Pennsylvania
Traffic Map
Current Weather Conditions
Philadelphia, Pennsylvania
Broken Clouds
Broken Clouds

Feels Like: -1°
Wind Chill: -1° Ceiling: 4500
Heat Index: Visibility: 10mi
Dew Point: -7° Wind: 21mph
Humidity: 43% Direction: 320° (NW)
Pressure: 29.91in Gusts: 29mph
Raw Report DataKPHL 301754Z 32018G25KT 10SM BKN045 BKN090 04/M07 A2991 RMK AO2 PK WND 31028/1659 SLP128 60000 T00441072 10050 20017 58009 $
Traffic Incident Summary
Active as of:
Severity:
Category:
InformationThere was an issue retrieving the traffic information for this location. Please try a different location or try again shortly.
Advertisements
Track Severe Weather on mobile